Terminal Aerodrome Forecast
Issued by NWS

Home | Current Version | Previous Version | Text Only | Print | Product List | Glossary On
Versions: 1 2 3 4 5 6 7 8 9 10 11 12 13 14 15 16 17 18 19 20 21 22 23 24 25 26 27 28
000
FTUS46 KMTR 270301 AAA
TAFSFO
TAF AMD
KSFO 270301Z 2703/2806 26016G20KT 5SM BR BKN008 OVC012
      TEMPO 2703/2706 2SM BR OVC008
     FM270600 27018G24KT 6SM BR SCT008 OVC012
     FM271200 28014G20KT P6SM FEW008 SCT012 OVC016
     FM271600 29014G20KT P6SM FEW012 BKN020 OVC200
     FM272000 28018G24KT P6SM SCT030 BKN250
     FM280400 28014KT P6SM SCT030 BKN250=

USA.gov is the U.S. government's official web portal to all federal, state and local government web resources and services.